NCAR-RAP Real-Time Weather Data

Output produced by METARs form (12 August 2020  18:58 UTC)
found at http://weather.rap.ucar.edu/surface/
 
KGSP 121853Z 00000KT 10SM FEW044 33/21 A3000 RMK AO2 LTG DSNT E AND SE SLP144 T03330211
KGSP 121753Z 00000KT 10SM FEW035 31/21 A3002 RMK AO2 LTG DSNT N SLP153 T03110211 10322 20228 58011
KGSP 121653Z VRB04KT 10SM FEW028 31/22 A3004 RMK AO2 SLP161 T03060222
KGSP 121553Z VRB06KT 10SM CLR 30/22 A3006 RMK AO2 SLP166 T03000222
KGSP 121453Z VRB06KT 10SM CLR 29/21 A3006 RMK AO2 SLP165 T02890211 51001
KGSP 121353Z 02005KT 10SM CLR 27/22 A3005 RMK AO2 SLP164 T02720217
KGSP 121253Z 05004KT 10SM CLR 25/22 A3006 RMK AO2 SLP166 T02500222
KGSP 121153Z 02004KT 8SM CLR 23/21 A3005 RMK AO2 SLP164 T02280211 10233 20211 53017
KGSP 121053Z COR 01003KT 10SM CLR 22/21 A3003 RMK AO2 SLP157 T02170206
KGSP 120953Z AUTO 35003KT 9SM CLR 22/21 A3001 RMK AO2 SLP150 T02170206 TSNO
KGSP 120853Z AUTO 00000KT 9SM CLR 22/21 A3000 RMK AO2 SLP146 T02220211 55004
KGSP 120753Z AUTO 03003KT 10SM CLR 23/21 A3000 RMK AO2 SLP144 T02280211
KGSP 120653Z AUTO 00000KT 10SM CLR 23/22 A3000 RMK AO2 LTG DSNT NE SLP145 T02330217
KGSP 120553Z AUTO 05004KT 10SM CLR 23/22 A3001 RMK AO2 LTG DSNT NE SLP151 T02280217 10272 20222 58002
KGSP 120453Z AUTO 00000KT 10SM CLR 23/21 A3003 RMK AO2 SLP155 T02330211 403280206
KGSP 120353Z AUTO 00000KT 10SM SCT055 24/21 A3003 RMK AO2 SLP156 T02440211
KGSP 120253Z 00000KT 10SM CLR 24/21 A3002 RMK AO2 SLP153 T02390206 51016
KGSP 120153Z 32003KT 10SM CLR 25/21 A3002 RMK AO2 SLP151 T02500206
KGSP 120053Z 00000KT 10SM CLR 26/21 A2999 RMK AO2 SLP142 T02560211
KGSP 112353Z 00000KT 10SM CLR 27/21 A2997 RMK AO2 SLP137 T02720211 10328 20272 55000
KGSP 112253Z 32003KT 10SM CLR 28/20 A2996 RMK AO2 SLP134 T02780200
KGSP 112153Z 28003KT 10SM CLR 29/22 A2997 RMK AO2 SLP135 T02890222